Time;durP1;ratioP1;P1;durP2;ratioP2;P2;SDS_P1;SDS_P2;PMS_P1;PMS_P2;Temp;Humidity;BMP_temperature;BMP_pressure;BME280_temperature;BME280_humidity;BME280_pressure;Samples;Min_cycle;Max_cycle;Signal;HPM_P1;HPM_P2
2024/02/11 00:01:00;;;;;;;32.37;20.23;;;10.00;99.90;;;;;;5032401;28;20293;-62
2024/02/11 00:03:27;;;;;;;30.87;19.53;;;10.00;99.90;;;;;;5033475;28;20444;-61
2024/02/11 00:05:54;;;;;;;27.03;19.47;;;10.00;99.90;;;;;;5032655;28;20528;-60
2024/02/11 00:08:22;;;;;;;30.67;22.00;;;10.00;99.90;;;;;;5033238;28;20441;-61
2024/02/11 00:10:50;;;;;;;33.37;22.57;;;10.00;99.90;;;;;;5033695;28;20449;-61
2024/02/11 00:13:18;;;;;;;31.20;20.80;;;10.00;99.90;;;;;;5033355;28;20836;-61
2024/02/11 00:15:46;;;;;;;29.57;20.90;;;10.00;99.90;;;;;;5033854;28;20530;-60
2024/02/11 00:18:13;;;;;;;29.93;20.33;;;10.00;99.90;;;;;;5033800;28;21114;-61
2024/02/11 00:20:40;;;;;;;30.73;20.70;;;10.00;99.90;;;;;;5034029;28;20449;-60
2024/02/11 00:23:07;;;;;;;35.07;21.00;;;10.00;99.90;;;;;;5033832;28;20472;-60
2024/02/11 00:25:33;;;;;;;33.90;23.43;;;10.00;99.90;;;;;;5034377;28;20434;-61
2024/02/11 00:28:00;;;;;;;32.90;22.03;;;10.00;99.90;;;;;;5035277;28;20452;-61
2024/02/11 00:30:30;;;;;;;31.70;20.57;;;10.10;99.90;;;;;;5038104;28;20440;-62
2024/02/11 00:32:57;;;;;;;32.90;22.80;;;10.00;99.90;;;;;;5038089;28;20465;-60
2024/02/11 00:35:23;;;;;;;32.97;22.53;;;10.10;99.90;;;;;;5036989;28;20206;-62
2024/02/11 00:37:50;;;;;;;34.80;21.37;;;10.10;99.90;;;;;;5036415;28;20480;-61
2024/02/11 00:40:17;;;;;;;28.60;20.63;;;10.10;99.90;;;;;;5036516;28;20472;-60
2024/02/11 00:42:45;;;;;;;30.47;20.70;;;10.10;99.90;;;;;;5035995;28;20978;-62
2024/02/11 00:45:13;;;;;;;30.00;19.80;;;10.10;99.90;;;;;;5036685;28;20447;-62
2024/02/11 00:47:41;;;;;;;30.33;21.27;;;10.00;99.90;;;;;;5036690;28;20441;-61
2024/02/11 00:50:11;;;;;;;31.87;20.73;;;10.10;99.90;;;;;;5036766;28;20456;-61
2024/02/11 00:52:40;;;;;;;31.03;22.67;;;10.10;99.90;;;;;;5036490;28;20461;-62
2024/02/11 00:55:08;;;;;;;28.43;20.63;;;10.10;99.90;;;;;;5036426;28;20537;-60
2024/02/11 00:57:36;;;;;;;34.60;22.73;;;10.10;99.90;;;;;;5036787;28;20483;-61
2024/02/11 01:00:05;;;;;;;35.47;23.83;;;10.10;99.90;;;;;;5036346;28;20452;-61
2024/02/11 01:02:32;;;;;;;32.80;23.00;;;10.00;99.90;;;;;;5036012;28;20508;-62
2024/02/11 01:05:00;;;;;;;30.60;20.80;;;10.10;99.90;;;;;;5035800;28;20958;-62
2024/02/11 01:07:27;;;;;;;33.07;22.37;;;10.10;99.90;;;;;;5036055;28;20954;-61
2024/02/11 01:09:54;;;;;;;30.00;21.73;;;10.10;99.90;;;;;;5036211;28;20452;-61
2024/02/11 01:12:21;;;;;;;29.90;20.47;;;10.10;99.90;;;;;;5036128;28;20460;-62
2024/02/11 01:14:48;;;;;;;32.70;21.73;;;10.10;99.90;;;;;;5035858;28;20971;-61
2024/02/11 01:17:19;;;;;;;30.42;21.00;;;10.10;99.90;;;;;;5035972;28;20792;-61
2024/02/11 01:19:46;;;;;;;31.17;21.10;;;10.10;99.90;;;;;;5036252;28;20191;-61
2024/02/11 01:22:14;;;;;;;29.83;21.63;;;10.10;99.90;;;;;;5035808;28;20531;-61
2024/02/11 01:24:41;;;;;;;32.07;22.63;;;10.00;99.90;;;;;;5035833;28;20447;-61
2024/02/11 01:27:09;;;;;;;31.97;22.40;;;10.10;99.90;;;;;;5036589;28;20454;-61
2024/02/11 01:29:36;;;;;;;33.63;23.63;;;10.00;99.90;;;;;;5036039;28;20444;-60
2024/02/11 01:32:05;;;;;;;33.20;21.90;;;10.00;99.90;;;;;;5035735;28;20464;-68
2024/02/11 01:34:32;;;;;;;29.90;20.73;;;10.10;99.90;;;;;;5036440;28;20473;-61
2024/02/11 01:36:58;;;;;;;30.60;21.20;;;10.10;99.90;;;;;;5035809;28;20436;-62
2024/02/11 01:39:26;;;;;;;33.38;23.05;;;10.00;99.90;;;;;;5035044;28;20994;-62
2024/02/11 01:41:53;;;;;;;32.47;22.80;;;10.00;99.90;;;;;;5035916;28;20242;-62
2024/02/11 01:44:20;;;;;;;32.20;20.90;;;10.10;99.90;;;;;;5036451;28;20448;-64
2024/02/11 01:46:48;;;;;;;33.53;20.80;;;10.00;99.90;;;;;;5036134;28;20457;-62
2024/02/11 01:49:15;;;;;;;31.00;22.13;;;10.00;99.90;;;;;;5035144;28;20531;-60
2024/02/11 01:51:43;;;;;;;29.70;21.03;;;10.00;99.90;;;;;;5034922;28;20468;-61
2024/02/11 01:54:12;;;;;;;29.20;20.67;;;10.00;99.90;;;;;;5035281;28;20449;-62
2024/02/11 01:56:40;;;;;;;28.27;21.70;;;10.00;99.90;;;;;;5035174;28;20936;-62
2024/02/11 01:59:08;;;;;;;30.27;22.40;;;10.00;99.90;;;;;;5035213;28;20488;-60
2024/02/11 02:01:35;;;;;;;28.43;21.10;;;10.00;99.90;;;;;;5034759;28;20472;-60
2024/02/11 02:04:03;;;;;;;39.53;22.27;;;10.10;99.90;;;;;;5035045;28;20453;-60
2024/02/11 02:06:30;;;;;;;32.70;22.20;;;10.00;99.90;;;;;;5035061;28;20531;-61
2024/02/11 02:08:59;;;;;;;32.87;21.47;;;10.10;99.90;;;;;;5035064;28;20973;-62
2024/02/11 02:11:26;;;;;;;29.83;21.50;;;10.00;99.90;;;;;;5034892;28;20476;-61
2024/02/11 02:13:54;;;;;;;30.63;22.20;;;10.00;99.90;;;;;;5035007;28;20445;-62
2024/02/11 02:16:22;;;;;;;29.63;20.70;;;10.10;99.90;;;;;;5034584;28;20822;-61
2024/02/11 02:18:51;;;;;;;29.00;21.37;;;10.10;99.90;;;;;;5034518;28;20857;-62
2024/02/11 02:21:19;;;;;;;30.30;20.47;;;10.10;99.90;;;;;;5034796;28;20461;-59
2024/02/11 02:23:48;;;;;;;31.40;21.50;;;10.10;99.90;;;;;;5034842;28;20448;-62
2024/02/11 02:26:15;;;;;;;25.53;20.17;;;10.10;99.90;;;;;;5034614;28;20441;-62
2024/02/11 02:28:42;;;;;;;31.73;22.50;;;10.10;99.90;;;;;;5034793;28;20444;-62
2024/02/11 02:31:10;;;;;;;28.40;20.27;;;10.10;99.90;;;;;;5035298;28;20461;-62
2024/02/11 02:33:37;;;;;;;33.83;21.80;;;10.10;99.90;;;;;;5034710;28;20440;-61
2024/02/11 02:36:05;;;;;;;33.50;23.70;;;10.10;99.90;;;;;;5034738;28;20448;-61
2024/02/11 02:38:32;;;;;;;34.50;22.50;;;10.10;99.90;;;;;;5034764;28;20856;-62
2024/02/11 02:41:00;;;;;;;32.33;22.30;;;10.10;99.90;;;;;;5034315;28;20472;-63
2024/02/11 02:43:27;;;;;;;32.70;22.77;;;10.10;99.90;;;;;;5034216;28;20447;-60
2024/02/11 02:45:54;;;;;;;32.47;21.70;;;10.10;99.90;;;;;;5034401;28;20441;-62
2024/02/11 02:48:20;;;;;;;31.20;22.67;;;10.10;99.90;;;;;;5034243;28;20448;-60
2024/02/11 02:50:47;;;;;;;32.77;22.17;;;10.00;99.90;;;;;;5033672;28;20819;-63
2024/02/11 02:53:16;;;;;;;32.40;22.90;;;10.00;99.90;;;;;;5033874;28;20445;-62
2024/02/11 02:55:42;;;;;;;33.43;23.27;;;10.00;99.90;;;;;;5034150;28;20448;-61
2024/02/11 02:58:14;;;;;;;32.20;22.43;;;10.00;99.90;;;;;;5034618;28;20487;-63
2024/02/11 03:00:40;;;;;;;32.40;22.83;;;10.00;99.90;;;;;;5034383;28;20433;-61
2024/02/11 03:03:07;;;;;;;41.27;23.30;;;10.00;99.90;;;;;;5057775;22;21014;-67
2024/02/11 03:05:37;;;;;;;35.40;23.37;;;10.00;99.90;;;;;;5034639;28;20437;-66
2024/02/11 03:08:05;;;;;;;40.23;23.73;;;9.90;99.90;;;;;;5034351;28;20444;-66
2024/02/11 03:10:32;;;;;;;45.33;25.73;;;9.90;99.90;;;;;;5034272;28;20465;-66
2024/02/11 03:12:59;;;;;;;44.07;24.80;;;9.90;99.90;;;;;;5033988;28;20465;-66
2024/02/11 03:15:28;;;;;;;41.07;24.77;;;9.90;99.90;;;;;;5034264;28;20535;-67
2024/02/11 03:17:54;;;;;;;35.27;23.40;;;9.80;99.90;;;;;;5033822;28;20441;-66
2024/02/11 03:20:21;;;;;;;40.27;25.90;;;9.90;99.90;;;;;;5033773;28;20441;-65
2024/02/11 03:22:48;;;;;;;43.37;25.87;;;9.80;99.90;;;;;;5034732;28;20484;-65
2024/02/11 03:25:15;;;;;;;42.40;25.80;;;9.80;99.90;;;;;;5033753;28;20449;-65
2024/02/11 03:27:42;;;;;;;42.70;25.47;;;9.80;99.90;;;;;;5034723;28;20531;-66
2024/02/11 03:30:10;;;;;;;40.87;25.23;;;9.80;99.90;;;;;;5033690;28;20441;-67
2024/02/11 03:32:40;;;;;;;41.77;24.70;;;9.80;99.90;;;;;;5033700;28;20464;-66
2024/02/11 03:35:08;;;;;;;38.33;22.80;;;9.80;99.90;;;;;;5033583;28;20547;-67
2024/02/11 03:37:35;;;;;;;41.27;25.03;;;9.80;99.90;;;;;;5033579;28;20448;-66
2024/02/11 03:40:08;;;;;;;43.43;24.53;;;9.80;99.90;;;;;;5033299;28;20841;-65
2024/02/11 03:42:34;;;;;;;43.87;25.33;;;9.80;99.90;;;;;;5033014;28;20978;-66
2024/02/11 03:45:04;;;;;;;42.57;23.90;;;9.80;99.90;;;;;;5033641;28;20452;-66
2024/02/11 03:47:30;;;;;;;43.67;24.10;;;9.80;99.90;;;;;;5033607;28;20445;-66
2024/02/11 03:49:58;;;;;;;42.10;25.40;;;9.80;99.90;;;;;;5033774;28;20436;-67
2024/02/11 03:52:25;;;;;;;44.83;26.67;;;9.80;99.90;;;;;;5033301;28;20461;-67
2024/02/11 03:54:52;;;;;;;40.83;25.40;;;9.80;99.90;;;;;;5033532;28;20456;-67
2024/02/11 03:57:19;;;;;;;46.10;26.53;;;9.80;99.90;;;;;;5033689;28;20449;-67
2024/02/11 03:59:46;;;;;;;43.93;24.50;;;9.80;99.90;;;;;;5033425;28;20844;-66
2024/02/11 04:02:13;;;;;;;40.07;24.17;;;9.80;99.90;;;;;;5032827;28;20523;-66
2024/02/11 04:04:39;;;;;;;46.77;25.33;;;9.80;99.90;;;;;;5033065;28;20456;-66
2024/02/11 04:07:10;;;;;;;48.60;26.47;;;9.80;99.90;;;;;;5033015;28;20441;-66
2024/02/11 04:13:09;;;;;;;44.28;25.60;;;9.80;99.90;;;;;;5090527;27;20569;-66
2024/02/11 04:15:37;;;;;;;43.67;24.80;;;9.80;99.90;;;;;;5090885;28;20196;-66
2024/02/11 04:18:10;;;;;;;43.63;24.80;;;9.80;99.90;;;;;;5090700;28;20448;-67
2024/02/11 04:20:37;;;;;;;45.17;25.07;;;9.80;99.90;;;;;;5090714;28;20422;-65
2024/02/11 04:23:05;;;;;;;38.37;24.93;;;9.80;99.90;;;;;;5114046;22;20461;-64
2024/02/11 04:25:34;;;;;;;43.07;25.37;;;9.80;99.90;;;;;;5051855;28;20444;-64
2024/02/11 04:28:01;;;;;;;40.07;23.33;;;9.80;99.90;;;;;;5052649;28;20455;-65
2024/02/11 04:30:30;;;;;;;39.47;23.70;;;9.80;99.90;;;;;;5052217;28;20456;-65
2024/02/11 04:32:59;;;;;;;42.97;24.40;;;9.80;99.90;;;;;;5051827;28;20856;-65
2024/02/11 04:35:25;;;;;;;42.30;26.20;;;9.80;99.90;;;;;;5032490;28;20445;-64
2024/02/11 04:37:53;;;;;;;41.37;24.70;;;9.80;99.90;;;;;;5033330;28;20445;-65
2024/02/11 04:40:21;;;;;;;42.63;25.60;;;9.90;99.90;;;;;;5032071;28;20445;-65
2024/02/11 04:42:52;;;;;;;34.93;22.70;;;9.90;99.90;;;;;;5032022;28;20433;-65
2024/02/11 04:45:20;;;;;;;43.67;25.00;;;9.90;99.90;;;;;;5031655;28;21006;-64
2024/02/11 04:47:49;;;;;;;38.40;24.90;;;9.90;99.90;;;;;;5031849;28;20529;-65
2024/02/11 04:50:16;;;;;;;39.03;24.70;;;9.90;99.90;;;;;;5031712;28;20445;-66
2024/02/11 04:52:48;;;;;;;41.37;25.00;;;9.90;99.90;;;;;;5031820;28;20476;-65
2024/02/11 04:55:15;;;;;;;39.30;23.53;;;9.90;99.90;;;;;;5032084;28;20465;-65
2024/02/11 04:57:42;;;;;;;37.97;24.53;;;9.90;99.90;;;;;;5031351;28;20982;-65
2024/02/11 05:00:10;;;;;;;41.40;23.57;;;9.80;99.90;;;;;;5031170;28;20445;-64
2024/02/11 05:02:39;;;;;;;39.97;24.60;;;9.80;99.90;;;;;;5032362;28;20437;-65
2024/02/11 05:05:08;;;;;;;34.33;23.07;;;9.80;99.90;;;;;;5031762;28;20469;-65
2024/02/11 05:07:35;;;;;;;37.07;25.30;;;9.90;99.90;;;;;;5031092;28;20452;-64
2024/02/11 05:10:01;;;;;;;40.67;23.60;;;9.80;99.90;;;;;;5033604;28;20441;-64
2024/02/11 05:12:30;;;;;;;40.33;24.40;;;9.80;99.90;;;;;;5037407;28;20534;-64
2024/02/11 05:14:57;;;;;;;42.37;24.70;;;9.80;99.90;;;;;;5032413;28;20560;-65
2024/02/11 05:17:25;;;;;;;35.50;24.13;;;9.80;99.90;;;;;;5030938;28;20437;-65
2024/02/11 05:19:52;;;;;;;39.67;25.30;;;9.80;99.90;;;;;;5030841;28;20813;-65
2024/02/11 05:22:20;;;;;;;39.80;25.50;;;9.80;99.90;;;;;;5030349;28;20445;-64
2024/02/11 05:24:47;;;;;;;39.40;23.92;;;9.80;99.90;;;;;;5017696;28;20477;-64
2024/02/11 05:27:14;;;;;;;41.37;24.70;;;9.80;99.90;;;;;;5018847;28;20205;-64
2024/02/11 05:29:41;;;;;;;41.33;26.13;;;9.80;99.90;;;;;;5018720;28;20442;-65
2024/02/11 05:32:08;;;;;;;45.13;25.27;;;9.80;99.90;;;;;;5019209;28;20489;-64
2024/02/11 05:34:38;;;;;;;42.00;25.30;;;9.80;99.90;;;;;;5018915;28;20473;-65
2024/02/11 05:37:07;;;;;;;37.43;23.47;;;9.80;99.90;;;;;;5019061;28;20442;-64
2024/02/11 05:39:37;;;;;;;37.63;24.13;;;9.80;99.90;;;;;;5017859;28;20504;-64
2024/02/11 05:42:09;;;;;;;38.57;26.17;;;9.80;99.90;;;;;;5017640;28;20442;-64
2024/02/11 05:44:36;;;;;;;41.80;24.43;;;9.80;99.90;;;;;;5017207;28;20494;-64
2024/02/11 05:47:03;;;;;;;39.53;24.47;;;9.80;99.90;;;;;;5017466;28;20813;-64
2024/02/11 05:49:31;;;;;;;44.07;27.13;;;9.80;99.90;;;;;;5017456;28;20452;-64
2024/02/11 05:51:58;;;;;;;39.23;24.93;;;9.90;99.90;;;;;;5017361;28;20485;-64
2024/02/11 05:54:28;;;;;;;36.17;23.90;;;9.80;99.90;;;;;;5016714;28;20466;-65
2024/02/11 05:56:56;;;;;;;36.50;23.97;;;9.80;99.90;;;;;;5017365;28;20446;-65
2024/02/11 05:59:22;;;;;;;35.20;24.07;;;9.80;99.90;;;;;;5016841;28;20449;-65
2024/02/11 06:01:49;;;;;;;34.13;22.80;;;9.80;99.90;;;;;;5015992;28;20446;-65
2024/02/11 06:04:16;;;;;;;35.20;22.77;;;9.90;99.90;;;;;;5016547;28;20876;-65
2024/02/11 06:06:43;;;;;;;37.30;25.73;;;9.90;99.90;;;;;;5017152;28;20521;-65
2024/02/11 06:09:13;;;;;;;38.97;24.53;;;9.90;99.90;;;;;;5016565;28;20453;-65
2024/02/11 06:11:40;;;;;;;35.63;23.63;;;9.90;99.90;;;;;;5015803;28;20558;-65
2024/02/11 06:14:08;;;;;;;35.00;23.63;;;9.90;99.90;;;;;;5016047;28;20458;-64
2024/02/11 06:16:35;;;;;;;32.93;21.60;;;9.90;99.90;;;;;;5016850;28;20442;-65
2024/02/11 06:19:03;;;;;;;40.07;27.57;;;9.90;99.90;;;;;;5016652;28;20442;-65
2024/02/11 06:21:30;;;;;;;38.80;24.10;;;9.90;99.90;;;;;;5016773;28;20533;-66
2024/02/11 06:23:57;;;;;;;32.83;23.00;;;9.90;99.90;;;;;;5015516;28;20470;-65
2024/02/11 06:26:24;;;;;;;41.40;27.00;;;9.90;99.90;;;;;;5014878;28;20449;-65
2024/02/11 06:28:51;;;;;;;35.50;24.10;;;9.90;99.90;;;;;;5015204;28;20454;-65
2024/02/11 06:31:19;;;;;;;36.40;25.43;;;9.90;99.90;;;;;;5016120;28;20469;-65
2024/02/11 06:33:45;;;;;;;38.83;24.20;;;9.90;99.90;;;;;;5018570;28;20485;-65
2024/02/11 06:36:13;;;;;;;37.60;23.53;;;9.90;99.90;;;;;;5016606;28;20446;-65
2024/02/11 06:38:40;;;;;;;37.90;26.30;;;9.90;99.90;;;;;;5019960;28;20795;-65
2024/02/11 06:41:07;;;;;;;37.63;25.27;;;9.90;99.90;;;;;;5018941;28;20450;-65
2024/02/11 06:43:34;;;;;;;42.53;27.03;;;9.90;99.90;;;;;;5019352;28;20463;-65
2024/02/11 06:46:03;;;;;;;37.10;24.83;;;9.90;99.90;;;;;;5022465;28;20823;-64
2024/02/11 06:48:31;;;;;;;34.90;23.73;;;9.90;99.90;;;;;;5023009;28;20457;-65
2024/02/11 06:50:58;;;;;;;34.37;23.77;;;9.90;99.90;;;;;;5022826;28;20461;-64
2024/02/11 06:53:23;;;;;;;38.97;24.77;;;9.90;99.90;;;;;;5017827;28;21034;-65
2024/02/11 06:55:50;;;;;;;36.50;24.90;;;9.90;99.90;;;;;;5018141;28;20485;-65
2024/02/11 06:58:17;;;;;;;38.13;24.43;;;9.90;99.90;;;;;;5016747;28;20210;-65
2024/02/11 07:00:45;;;;;;;38.43;23.97;;;9.90;99.90;;;;;;5014911;28;20453;-64
2024/02/11 07:03:13;;;;;;;39.50;25.10;;;9.90;99.90;;;;;;5016189;28;21044;-64
2024/02/11 07:05:41;;;;;;;39.33;24.03;;;9.90;99.90;;;;;;5016130;28;20473;-65
2024/02/11 07:08:08;;;;;;;35.23;24.77;;;9.90;99.90;;;;;;5014967;28;20477;-65
2024/02/11 07:10:35;;;;;;;37.00;25.00;;;9.90;99.90;;;;;;5014559;28;20520;-65
2024/02/11 07:13:02;;;;;;;34.20;24.40;;;9.90;99.90;;;;;;5014213;28;20991;-66
2024/02/11 07:15:29;;;;;;;39.53;25.47;;;9.90;99.90;;;;;;5014900;28;20850;-66
2024/02/11 07:17:56;;;;;;;36.40;25.43;;;9.90;99.90;;;;;;5015113;28;20453;-66
2024/02/11 07:20:22;;;;;;;36.63;25.87;;;9.90;99.90;;;;;;5015062;28;20441;-65
2024/02/11 07:22:50;;;;;;;38.93;25.67;;;9.90;99.90;;;;;;5014502;28;20937;-65
2024/02/11 07:25:17;;;;;;;40.33;26.20;;;9.90;99.90;;;;;;5014471;28;20477;-65
2024/02/11 07:27:44;;;;;;;40.60;24.87;;;9.90;99.90;;;;;;5014684;28;20206;-65
2024/02/11 07:30:12;;;;;;;41.83;26.30;;;9.90;99.90;;;;;;5014921;28;20446;-65
2024/02/11 07:32:41;;;;;;;37.70;24.37;;;9.90;99.90;;;;;;5013908;28;20477;-65
2024/02/11 07:35:08;;;;;;;39.10;25.10;;;9.90;99.90;;;;;;5014062;28;20976;-65
2024/02/11 07:37:35;;;;;;;35.50;24.30;;;9.90;99.90;;;;;;5017286;28;20446;-65
2024/02/11 07:40:04;;;;;;;40.17;25.90;;;9.90;99.90;;;;;;5017809;28;20508;-64
2024/02/11 07:42:31;;;;;;;42.03;26.70;;;10.00;99.90;;;;;;5015371;28;20808;-66
2024/02/11 07:44:58;;;;;;;39.80;26.30;;;10.00;99.90;;;;;;5014295;28;20528;-66
2024/02/11 07:47:25;;;;;;;38.00;26.03;;;10.00;99.90;;;;;;5014232;28;20446;-65
2024/02/11 07:49:52;;;;;;;40.90;25.60;;;10.00;99.90;;;;;;5014186;28;20500;-65
2024/02/11 07:52:21;;;;;;;39.77;23.37;;;10.00;99.90;;;;;;5014011;28;20488;-65
2024/02/11 07:54:48;;;;;;;33.57;23.17;;;10.00;99.90;;;;;;5013532;28;20991;-66
2024/02/11 07:57:17;;;;;;;38.50;24.57;;;10.00;99.90;;;;;;5014448;28;20448;-66
2024/02/11 07:59:45;;;;;;;35.70;24.10;;;10.00;99.90;;;;;;5015119;28;20538;-66
2024/02/11 08:02:12;;;;;;;36.33;24.20;;;10.00;99.90;;;;;;5015220;28;20529;-65
2024/02/11 08:04:39;;;;;;;41.17;24.17;;;10.10;99.90;;;;;;5015180;28;20847;-65
2024/02/11 08:07:06;;;;;;;36.70;24.60;;;10.00;99.90;;;;;;5014024;28;20450;-66
2024/02/11 08:09:32;;;;;;;39.50;25.57;;;10.10;99.90;;;;;;5013804;28;20446;-65
2024/02/11 08:11:59;;;;;;;39.03;23.57;;;10.10;99.90;;;;;;5014017;28;20446;-65
2024/02/11 08:14:27;;;;;;;38.10;24.30;;;10.10;99.90;;;;;;5014083;28;20466;-66
2024/02/11 08:16:54;;;;;;;33.60;23.00;;;10.10;99.90;;;;;;5014070;28;20820;-65
2024/02/11 08:19:21;;;;;;;35.63;23.93;;;10.10;99.90;;;;;;5013650;28;20450;-65
2024/02/11 08:21:47;;;;;;;39.50;25.60;;;10.10;99.90;;;;;;5014016;28;20442;-66
2024/02/11 08:24:14;;;;;;;39.80;24.90;;;10.20;99.90;;;;;;5013817;28;20473;-65
2024/02/11 08:26:41;;;;;;;35.23;22.57;;;10.20;99.90;;;;;;5013919;28;20442;-65
2024/02/11 08:29:08;;;;;;;34.63;22.00;;;10.20;99.90;;;;;;5013811;28;20537;-67
2024/02/11 08:31:36;;;;;;;38.00;23.77;;;10.20;99.90;;;;;;5013849;28;20466;-66
2024/02/11 08:34:03;;;;;;;38.83;25.10;;;10.20;99.90;;;;;;5013607;28;20489;-65
2024/02/11 08:36:30;;;;;;;46.07;26.73;;;10.20;99.90;;;;;;5013781;28;20810;-66
2024/02/11 08:38:58;;;;;;;41.20;24.60;;;10.20;99.90;;;;;;5014073;28;20446;-66
2024/02/11 08:41:24;;;;;;;37.23;25.80;;;10.20;99.90;;;;;;5013774;28;20944;-67
2024/02/11 08:43:51;;;;;;;41.50;26.23;;;10.30;99.90;;;;;;5013950;28;20469;-65
2024/02/11 08:46:18;;;;;;;38.73;24.97;;;10.30;99.90;;;;;;5013942;28;21017;-66
2024/02/11 08:48:46;;;;;;;40.73;26.70;;;10.40;99.90;;;;;;5013833;28;20446;-65
2024/02/11 08:51:15;;;;;;;43.30;26.10;;;10.40;99.90;;;;;;5014539;28;20442;-67
2024/02/11 08:53:42;;;;;;;40.80;27.10;;;10.50;99.90;;;;;;5013682;28;20482;-66
2024/02/11 08:56:09;;;;;;;44.37;26.50;;;10.60;99.90;;;;;;5014062;28;20446;-67
2024/02/11 08:58:37;;;;;;;42.30;26.13;;;10.60;99.90;;;;;;5014741;28;20442;-67
2024/02/11 09:01:05;;;;;;;42.93;26.43;;;10.70;99.90;;;;;;5016991;28;20454;-67
2024/02/11 09:03:32;;;;;;;47.33;26.97;;;10.70;99.90;;;;;;5016644;28;20465;-67
2024/02/11 09:06:00;;;;;;;46.23;26.10;;;10.80;99.90;;;;;;5016691;28;20529;-66
2024/02/11 09:08:27;;;;;;;44.50;26.20;;;10.80;99.90;;;;;;5016866;28;20928;-66
2024/02/11 09:10:54;;;;;;;43.40;26.70;;;10.80;99.90;;;;;;5016757;28;20461;-66
2024/02/11 09:13:22;;;;;;;41.53;25.47;;;10.80;99.90;;;;;;5016506;28;20485;-66
2024/02/11 09:15:49;;;;;;;46.43;25.97;;;10.80;99.90;;;;;;5016772;28;20478;-66
2024/02/11 09:18:19;;;;;;;40.30;25.83;;;10.90;99.90;;;;;;5016578;28;20437;-66
2024/02/11 09:20:46;;;;;;;37.60;23.53;;;10.90;99.90;;;;;;5016759;28;21003;-66
2024/02/11 09:23:14;;;;;;;40.67;26.97;;;10.90;99.90;;;;;;5017148;28;20986;-66
2024/02/11 09:25:42;;;;;;;41.87;25.50;;;10.90;99.90;;;;;;5017818;28;20422;-67
2024/02/11 09:28:08;;;;;;;38.80;23.73;;;10.90;99.90;;;;;;5016831;28;20990;-67
2024/02/11 09:30:35;;;;;;;43.97;25.50;;;10.80;99.90;;;;;;5016246;28;20453;-66
2024/02/11 09:33:02;;;;;;;40.70;24.20;;;10.80;99.90;;;;;;5016375;28;20572;-65
2024/02/11 09:35:29;;;;;;;45.60;27.73;;;10.70;99.90;;;;;;5017727;28;20441;-67
2024/02/11 09:37:56;;;;;;;41.80;25.87;;;10.70;99.90;;;;;;5017764;28;20932;-70
2024/02/11 09:40:24;;;;;;;48.60;27.50;;;10.60;99.90;;;;;;5016558;28;20442;-66
2024/02/11 09:42:53;;;;;;;48.67;27.07;;;10.70;99.90;;;;;;5018180;28;20445;-67
2024/02/11 09:45:23;;;;;;;49.97;29.97;;;10.60;99.90;;;;;;5017259;28;20474;-66
2024/02/11 09:47:52;;;;;;;46.77;27.27;;;10.70;99.90;;;;;;5017526;28;20493;-68
2024/02/11 09:50:20;;;;;;;48.47;26.40;;;10.70;99.90;;;;;;5015987;28;20441;-66
2024/02/11 09:52:49;;;;;;;48.87;27.10;;;10.70;99.90;;;;;;5017567;28;20486;-66
2024/02/11 09:55:19;;;;;;;44.60;27.53;;;10.70;99.90;;;;;;5017180;28;20468;-66
2024/02/11 09:57:47;;;;;;;42.47;26.87;;;10.70;99.90;;;;;;5016744;28;20449;-66
2024/02/11 10:00:15;;;;;;;40.93;27.60;;;10.70;99.90;;;;;;5015891;28;20816;-66
2024/02/11 10:02:43;;;;;;;43.40;27.37;;;10.70;99.90;;;;;;5016998;28;20442;-67
2024/02/11 10:05:11;;;;;;;42.97;27.03;;;10.70;99.90;;;;;;5016083;28;20466;-66
2024/02/11 10:07:43;;;;;;;43.60;26.20;;;10.70;99.90;;;;;;5015781;28;20450;-67
2024/02/11 10:10:13;;;;;;;47.53;28.30;;;10.70;99.90;;;;;;5015990;28;20441;-66
2024/02/11 10:12:41;;;;;;;47.70;27.47;;;10.70;99.90;;;;;;5017266;28;20442;-66
2024/02/11 10:15:14;;;;;;;43.97;26.93;;;10.70;99.90;;;;;;5017507;28;20469;-67
2024/02/11 10:17:41;;;;;;;50.50;27.20;;;10.70;99.90;;;;;;5017181;28;20426;-66
2024/02/11 10:20:12;;;;;;;45.97;27.07;;;10.70;99.90;;;;;;5018491;28;20442;-66
2024/02/11 10:22:38;;;;;;;53.43;30.60;;;10.70;99.90;;;;;;5019734;28;20426;-67
2024/02/11 10:25:09;;;;;;;50.73;29.60;;;10.60;99.90;;;;;;5020627;28;20851;-67
2024/02/11 10:27:36;;;;;;;50.47;29.33;;;10.60;99.90;;;;;;5019139;28;20442;-67
2024/02/11 10:30:05;;;;;;;53.07;30.17;;;10.60;99.90;;;;;;5017944;28;20529;-67
2024/02/11 10:32:37;;;;;;;47.23;27.90;;;10.60;99.90;;;;;;5018199;28;20536;-66
2024/02/11 10:35:04;;;;;;;53.93;28.37;;;10.60;99.90;;;;;;5018327;28;21018;-68
2024/02/11 10:37:36;;;;;;;48.33;26.47;;;10.50;99.90;;;;;;5020661;28;20518;-66
2024/02/11 10:40:06;;;;;;;47.63;27.87;;;10.50;99.90;;;;;;5021587;28;20430;-67
2024/02/11 10:42:34;;;;;;;45.00;26.60;;;10.50;99.90;;;;;;5020895;28;20446;-67
2024/02/11 10:45:01;;;;;;;48.80;27.87;;;10.50;99.90;;;;;;5019461;28;20444;-67
2024/02/11 10:47:28;;;;;;;44.73;26.60;;;10.50;99.90;;;;;;5017677;28;20448;-68
2024/02/11 10:49:56;;;;;;;47.87;27.60;;;10.50;99.90;;;;;;5016273;28;20962;-66
2024/02/11 10:52:25;;;;;;;46.17;25.93;;;10.50;99.90;;;;;;5016019;28;20474;-67
2024/02/11 10:54:56;;;;;;;44.10;25.90;;;10.60;99.90;;;;;;5015791;28;20492;-67
2024/02/11 10:57:24;;;;;;;41.70;24.57;;;10.60;99.90;;;;;;5015654;28;20422;-66
2024/02/11 10:59:58;;;;;;;38.70;26.20;;;10.60;99.90;;;;;;5015435;28;20449;-67
2024/02/11 11:02:27;;;;;;;39.20;26.00;;;10.60;99.90;;;;;;5015561;28;20431;-67
2024/02/11 11:05:03;;;;;;;40.03;23.40;;;10.60;99.90;;;;;;5015126;28;20458;-66
2024/02/11 11:07:35;;;;;;;41.10;25.83;;;10.60;99.90;;;;;;5015840;28;20496;-67
2024/02/11 11:10:02;;;;;;;42.00;24.93;;;10.60;99.90;;;;;;5014806;28;20892;-66
2024/02/11 11:12:29;;;;;;;39.77;24.97;;;10.60;99.90;;;;;;5014502;28;20830;-67
2024/02/11 11:14:58;;;;;;;38.97;24.00;;;10.60;99.90;;;;;;5014176;28;21062;-67
2024/02/11 11:17:25;;;;;;;35.93;22.70;;;10.60;99.90;;;;;;5014524;28;20944;-67
2024/02/11 11:19:54;;;;;;;34.03;22.07;;;10.60;99.90;;;;;;5014557;28;20442;-66
2024/02/11 11:22:26;;;;;;;34.77;21.20;;;10.60;99.90;;;;;;5014235;28;20445;-66
2024/02/11 11:24:53;;;;;;;40.40;25.10;;;10.60;99.90;;;;;;5014031;28;20672;-67
2024/02/11 11:27:22;;;;;;;38.33;24.20;;;10.60;99.90;;;;;;5014237;28;20438;-67
2024/02/11 11:29:49;;;;;;;35.30;24.20;;;10.60;99.90;;;;;;5014111;28;20958;-67
2024/02/11 11:32:22;;;;;;;35.17;24.27;;;10.70;99.90;;;;;;5014577;28;20610;-67
2024/02/11 11:34:49;;;;;;;34.60;25.20;;;10.70;99.90;;;;;;5014032;28;20485;-70
2024/02/11 11:37:15;;;;;;;34.87;23.10;;;10.70;99.90;;;;;;5014674;28;20437;-66
2024/02/11 11:39:44;;;;;;;35.57;23.37;;;10.70;99.90;;;;;;5014539;28;20446;-67
2024/02/11 11:42:11;;;;;;;41.20;26.20;;;10.70;99.90;;;;;;5017273;28;20528;-65
2024/02/11 11:44:38;;;;;;;40.43;24.77;;;10.70;99.90;;;;;;5016171;28;20466;-67
2024/02/11 11:47:06;;;;;;;40.80;24.27;;;10.80;99.90;;;;;;5014566;28;20469;-67
2024/02/11 11:49:34;;;;;;;33.50;22.40;;;10.80;99.90;;;;;;5014884;28;20441;-67
2024/02/11 11:52:01;;;;;;;36.03;23.50;;;10.90;99.90;;;;;;5014075;28;20453;-67
2024/02/11 11:54:29;;;;;;;35.47;23.30;;;10.90;99.90;;;;;;5014504;28;20852;-66
2024/02/11 11:56:57;;;;;;;43.20;26.03;;;10.80;99.90;;;;;;5014716;28;20819;-67
2024/02/11 11:59:25;;;;;;;36.77;24.67;;;10.80;99.90;;;;;;5013923;28;20871;-67
2024/02/11 12:01:51;;;;;;;36.47;25.10;;;10.80;99.90;;;;;;5014477;28;20442;-67
2024/02/11 12:04:19;;;;;;;35.30;24.37;;;10.80;99.90;;;;;;5013934;28;20462;-66
2024/02/11 12:06:46;;;;;;;39.17;24.63;;;10.90;99.90;;;;;;5014064;28;20441;-67
2024/02/11 12:09:14;;;;;;;34.90;23.00;;;10.80;99.90;;;;;;5013557;28;21015;-66
2024/02/11 12:11:41;;;;;;;34.77;22.70;;;10.80;99.90;;;;;;5014131;28;20855;-67
2024/02/11 12:14:11;;;;;;;35.10;23.90;;;10.80;99.90;;;;;;5013345;28;20497;-65
2024/02/11 12:16:38;;;;;;;38.33;24.73;;;10.80;99.90;;;;;;5013881;28;20453;-66
2024/02/11 12:19:05;;;;;;;35.87;22.93;;;10.70;99.90;;;;;;5014171;28;20442;-67
2024/02/11 12:21:32;;;;;;;35.30;24.20;;;10.70;99.90;;;;;;5014604;28;20446;-67
2024/02/11 12:24:00;;;;;;;36.20;24.13;;;10.70;99.90;;;;;;5015289;28;20481;-66
2024/02/11 12:26:28;;;;;;;35.27;23.50;;;10.70;99.90;;;;;;5018409;28;20907;-67
2024/02/11 12:28:55;;;;;;;33.70;24.00;;;10.80;99.90;;;;;;5016761;28;20454;-67
2024/02/11 12:31:26;;;;;;;37.47;24.10;;;10.80;99.90;;;;;;5015689;28;20442;-68
2024/02/11 12:33:54;;;;;;;38.30;26.10;;;10.80;99.90;;;;;;5016140;28;20478;-66
2024/02/11 12:36:23;;;;;;;38.20;25.10;;;10.80;99.90;;;;;;5019331;28;20513;-67